createdAt,value
2023-03-20T00:02:38.573Z,6.38
2023-03-20T00:05:41.598Z,5.85
2023-03-20T00:08:48.573Z,5.95
2023-03-20T00:11:53.796Z,5.37
2023-03-20T00:14:56.564Z,6.30
2023-03-20T00:17:59.487Z,6.03
2023-03-20T00:21:02.290Z,6.07
2023-03-20T00:24:05.344Z,6.22
2023-03-20T00:27:13.658Z,6.00
2023-03-20T00:30:29.448Z,5.70
2023-03-20T00:33:32.106Z,6.45
2023-03-20T00:36:34.905Z,5.28
2023-03-20T00:39:37.657Z,7.95
2023-03-20T00:42:41.121Z,5.87
2023-03-20T00:45:46.333Z,6.03
2023-03-20T00:48:49.621Z,5.97
2023-03-20T00:51:52.839Z,5.93
2023-03-20T00:54:55.887Z,7.07
2023-03-20T00:58:03.899Z,5.57
2023-03-20T01:01:07.134Z,7.43
2023-03-20T01:04:14.105Z,5.82
2023-03-20T01:07:19.372Z,6.13
2023-03-20T01:10:32.356Z,5.85
2023-03-20T01:13:35.903Z,5.17
2023-03-20T01:16:38.750Z,5.70
2023-03-20T01:19:41.600Z,5.57
2023-03-20T01:22:44.712Z,5.60
2023-03-20T01:25:47.717Z,5.72
2023-03-20T01:28:52.278Z,5.63
2023-03-20T01:31:56.028Z,5.33
2023-03-20T01:35:01.264Z,5.20
2023-03-20T01:38:04.005Z,5.22
2023-03-20T01:41:16.807Z,4.90
2023-03-20T01:44:23.289Z,6.37
2023-03-20T01:47:33.666Z,5.47
2023-03-20T01:50:37.673Z,5.50
2023-03-20T01:54:13.194Z,5.70
2023-03-20T01:57:27.145Z,5.82
2023-03-20T02:00:32.284Z,6.23
2023-03-20T02:03:35.328Z,4.83
2023-03-20T02:07:16.743Z,5.40
2023-03-20T02:10:24.618Z,5.35
2023-03-20T02:14:00.552Z,4.93
2023-03-20T02:17:10.924Z,4.90
2023-03-20T02:20:26.676Z,5.60
2023-03-20T02:24:10.107Z,5.85
2023-03-20T02:27:25.617Z,4.25
2023-03-20T02:30:48.319Z,3.95
2023-03-20T02:34:22.747Z,5.77
2023-03-20T02:37:48.138Z,5.20
2023-03-20T02:41:14.911Z,5.00
2023-03-20T02:44:36.293Z,5.63
2023-03-20T02:48:03.275Z,4.28
2023-03-20T02:51:25.471Z,4.77
2023-03-20T02:54:43.323Z,5.37
2023-03-20T02:58:20.937Z,5.35
2023-03-20T03:01:33.717Z,4.22
2023-03-20T03:04:45.211Z,5.03
2023-03-20T03:07:57.001Z,5.37
2023-03-20T03:11:08.970Z,5.17
2023-03-20T03:14:21.734Z,4.85
2023-03-20T03:17:30.131Z,5.25
2023-03-20T03:20:39.282Z,4.40
2023-03-20T03:23:47.192Z,5.20
2023-03-20T03:26:50.345Z,4.80
2023-03-20T03:29:58.750Z,5.35
2023-03-20T03:33:17.935Z,5.05
2023-03-20T03:36:32.516Z,5.15
2023-03-20T03:39:39.065Z,4.97
2023-03-20T03:42:57.211Z,6.00
2023-03-20T03:46:12.780Z,5.15
2023-03-20T03:49:32.814Z,4.78
2023-03-20T03:52:38.897Z,5.10
2023-03-20T03:55:46.094Z,4.63
2023-03-20T03:58:56.891Z,4.90
2023-03-20T04:02:01.565Z,4.60
2023-03-20T04:05:07.416Z,5.75
2023-03-20T04:08:11.669Z,4.88
2023-03-20T04:11:19.606Z,5.23
2023-03-20T04:14:23.917Z,4.90
2023-03-20T04:17:26.713Z,5.10
2023-03-20T04:20:29.967Z,4.93
2023-03-20T04:23:33.340Z,5.65
2023-03-20T04:26:36.458Z,5.50
2023-03-20T04:29:39.481Z,4.90
2023-03-20T04:33:17.771Z,4.53
2023-03-20T04:36:37.004Z,4.63
2023-03-20T04:39:43.158Z,5.15
2023-03-20T04:42:47.298Z,5.33
2023-03-20T04:45:50.115Z,5.60
2023-03-20T04:48:52.982Z,4.55
2023-03-20T04:51:56.851Z,4.68
2023-03-20T04:55:12.037Z,4.15
2023-03-20T04:58:15.166Z,4.57
2023-03-20T05:01:17.977Z,4.43
2023-03-20T05:04:21.522Z,4.60
2023-03-20T05:07:25.482Z,4.88
2023-03-20T05:10:40.800Z,4.63
2023-03-20T05:14:02.525Z,4.53
2023-03-20T05:17:19.909Z,4.83
2023-03-20T05:20:41.407Z,5.60
2023-03-20T05:24:07.869Z,4.60
2023-03-20T05:27:18.751Z,5.22
2023-03-20T05:30:47.620Z,5.67
2023-03-20T05:33:59.576Z,6.70
2023-03-20T05:37:21.217Z,4.80
2023-03-20T05:40:34.116Z,5.15
2023-03-20T05:43:59.868Z,5.30
2023-03-20T05:47:25.580Z,4.80
2023-03-20T05:50:52.010Z,5.17
2023-03-20T05:54:25.189Z,3.92
2023-03-20T05:57:51.288Z,5.18
2023-03-20T06:01:23.404Z,5.10
2023-03-20T06:04:56.332Z,4.80
2023-03-20T06:08:05.166Z,5.50
2023-03-20T06:11:08.487Z,4.60
2023-03-20T06:14:13.815Z,4.97
2023-03-20T06:17:19.719Z,5.32
2023-03-20T06:20:27.981Z,4.90
2023-03-20T06:23:31.105Z,4.27
2023-03-20T06:26:36.285Z,4.72
2023-03-20T06:29:43.725Z,5.05
2023-03-20T06:32:53.840Z,5.10
2023-03-20T06:35:59.376Z,3.97
2023-03-20T06:39:05.344Z,4.20
2023-03-20T06:42:08.611Z,3.83
2023-03-20T06:45:12.477Z,5.82
2023-03-20T06:48:31.427Z,4.90
2023-03-20T06:51:37.432Z,4.23
2023-03-20T06:54:42.305Z,8.60
2023-03-20T06:57:45.346Z,4.75
2023-03-20T07:00:48.488Z,4.90
2023-03-20T07:03:51.352Z,6.40
2023-03-20T07:06:59.738Z,4.30
2023-03-20T07:10:11.415Z,6.20
2023-03-20T07:13:18.862Z,5.53
2023-03-20T07:16:22.691Z,4.93
2023-03-20T07:19:26.309Z,4.75
2023-03-20T07:22:32.695Z,6.10
2023-03-20T07:26:07.963Z,4.43
2023-03-20T07:29:10.745Z,5.82
2023-03-20T07:32:14.617Z,5.70
2023-03-20T07:35:24.797Z,8.02
2023-03-20T07:38:27.688Z,5.50
2023-03-20T07:41:44.488Z,5.13
2023-03-20T07:44:58.701Z,4.70
2023-03-20T07:48:01.958Z,4.85
2023-03-20T07:51:08.537Z,6.25
2023-03-20T07:54:13.753Z,6.77
2023-03-20T07:57:17.229Z,6.70
2023-03-20T08:00:20.896Z,5.97
2023-03-20T08:03:23.850Z,4.25
2023-03-20T08:06:28.392Z,4.90
2023-03-20T08:09:31.389Z,6.37
2023-03-20T08:12:34.431Z,4.73
2023-03-20T08:15:37.434Z,9.13
2023-03-20T08:18:40.503Z,7.13
2023-03-20T08:21:46.597Z,10.00
2023-03-20T08:24:49.432Z,9.00
2023-03-20T08:27:53.074Z,7.33
2023-03-20T08:30:56.129Z,6.45
2023-03-20T08:33:59.473Z,8.93
2023-03-20T08:37:05.543Z,6.18
2023-03-20T08:40:09.094Z,7.37
2023-03-20T08:43:12.061Z,7.70
2023-03-20T08:46:15.040Z,8.90
2023-03-20T08:49:18.731Z,6.90
2023-03-20T08:52:21.874Z,7.22
2023-03-20T08:55:25.446Z,9.27
2023-03-20T08:58:29.922Z,6.90
2023-03-20T09:01:48.380Z,8.55
2023-03-20T09:05:10.653Z,7.90
2023-03-20T09:08:15.128Z,8.63
2023-03-20T09:11:18.390Z,8.83
2023-03-20T09:14:21.264Z,7.97
2023-03-20T09:17:24.233Z,6.97
2023-03-20T09:20:27.299Z,7.07
2023-03-20T09:23:30.456Z,7.90
2023-03-20T09:26:33.438Z,10.73
2023-03-20T09:29:41.161Z,6.17
2023-03-20T09:32:44.135Z,6.38
2023-03-20T09:35:47.109Z,8.80
2023-03-20T09:38:50.026Z,8.95
2023-03-20T09:41:57.553Z,7.70
2023-03-20T09:45:39.856Z,8.43
2023-03-20T09:49:20.704Z,7.13
2023-03-20T09:52:40.686Z,7.70
2023-03-20T09:55:44.835Z,7.53
2023-03-20T09:58:54.722Z,9.03
2023-03-20T10:02:03.694Z,8.60
2023-03-20T10:05:23.222Z,8.20
2023-03-20T10:08:34.192Z,10.30
2023-03-20T10:12:04.184Z,8.05
2023-03-20T10:15:25.090Z,7.80
2023-03-20T10:18:35.501Z,9.33
2023-03-20T10:22:04.328Z,10.23
2023-03-20T10:25:25.887Z,7.15
2023-03-20T10:28:40.767Z,8.60
2023-03-20T10:32:12.580Z,8.57
2023-03-20T10:35:27.512Z,9.90
2023-03-20T10:38:39.162Z,13.18
2023-03-20T10:41:47.065Z,9.18
2023-03-20T10:44:56.618Z,9.98
2023-03-20T10:48:04.019Z,10.00
2023-03-20T10:51:14.854Z,9.77
2023-03-20T10:54:41.797Z,8.32
2023-03-20T10:57:50.125Z,10.80
2023-03-20T11:00:56.346Z,8.45
2023-03-20T11:03:59.698Z,13.63
2023-03-20T11:07:25.613Z,7.73
2023-03-20T11:10:28.463Z,8.70
2023-03-20T11:13:42.695Z,9.32
2023-03-20T11:16:50.045Z,9.48
2023-03-20T11:19:52.925Z,11.37
2023-03-20T11:23:05.781Z,10.33
2023-03-20T11:26:16.416Z,9.15
2023-03-20T11:29:30.078Z,9.65
2023-03-20T11:32:40.946Z,8.98
2023-03-20T11:35:50.897Z,8.87
2023-03-20T11:38:58.847Z,10.63
2023-03-20T11:42:02.988Z,7.25
2023-03-20T11:45:21.979Z,9.07
2023-03-20T11:48:40.662Z,12.25
2023-03-20T11:51:46.570Z,8.47
2023-03-20T11:54:58.483Z,9.27
2023-03-20T11:58:05.109Z,9.43
2023-03-20T12:01:10.141Z,10.32
2023-03-20T12:04:15.802Z,11.90
2023-03-20T12:07:21.202Z,9.47
2023-03-20T12:10:29.276Z,11.07
2023-03-20T12:13:41.612Z,10.15
2023-03-20T12:16:45.739Z,9.77
2023-03-20T12:19:50.369Z,11.52
2023-03-20T12:23:21.832Z,8.83
2023-03-20T12:26:32.961Z,11.23
2023-03-20T12:30:00.886Z,11.07
2023-03-20T12:33:06.710Z,9.63
2023-03-20T12:36:18.629Z,8.82
2023-03-20T12:39:25.349Z,11.23
2023-03-20T12:42:59.083Z,10.70
2023-03-20T12:46:29.756Z,9.73
2023-03-20T12:49:44.307Z,8.85
2023-03-20T12:52:54.463Z,7.85
2023-03-20T12:56:15.854Z,7.53
2023-03-20T12:59:41.829Z,10.53
2023-03-20T13:02:50.318Z,10.35
2023-03-20T13:06:11.895Z,11.35
2023-03-20T13:09:32.728Z,10.75
2023-03-20T13:13:06.291Z,8.80
2023-03-20T13:16:21.022Z,8.40
2023-03-20T13:19:45.226Z,7.95
2023-03-20T13:22:51.122Z,8.15
2023-03-20T13:26:17.309Z,9.30
2023-03-20T13:29:54.295Z,10.50
2023-03-20T13:33:34.835Z,8.63
2023-03-20T13:36:56.546Z,11.63
2023-03-20T13:40:17.760Z,10.15
2023-03-20T13:43:35.010Z,7.68
2023-03-20T13:46:44.106Z,7.17
2023-03-20T13:50:05.483Z,8.03
2023-03-20T13:53:28.593Z,8.25
2023-03-20T13:56:53.259Z,8.27
2023-03-20T14:00:19.519Z,9.95
2023-03-20T14:03:31.280Z,9.10
2023-03-20T14:06:42.776Z,7.03
2023-03-20T14:09:46.647Z,10.75
2023-03-20T14:12:57.622Z,7.38
2023-03-20T14:16:03.975Z,8.63
2023-03-20T14:19:14.572Z,10.37
2023-03-20T14:22:23.899Z,7.90
2023-03-20T14:25:40.583Z,11.77
2023-03-20T14:28:54.861Z,8.63
2023-03-20T14:32:14.413Z,9.95
2023-03-20T14:35:29.629Z,6.93
2023-03-20T14:38:52.015Z,10.30
2023-03-20T14:42:36.883Z,10.68
2023-03-20T14:45:55.777Z,13.65
2023-03-20T14:49:16.973Z,13.60
2023-03-20T14:52:28.360Z,13.10
2023-03-20T14:55:35.912Z,13.80
2023-03-20T14:58:54.027Z,13.18
2023-03-20T15:02:03.020Z,11.23
2023-03-20T15:05:06.767Z,10.25
2023-03-20T15:08:25.833Z,14.47
2023-03-20T15:11:29.722Z,12.60
2023-03-20T15:15:00.870Z,10.77
2023-03-20T15:18:11.675Z,9.05
2023-03-20T15:21:21.162Z,9.32
2023-03-20T15:24:27.116Z,10.13
2023-03-20T15:27:29.958Z,10.00
2023-03-20T15:30:36.531Z,10.70
2023-03-20T15:33:43.130Z,11.88
2023-03-20T15:36:46.256Z,9.43
2023-03-20T15:39:53.881Z,10.70
2023-03-20T15:43:06.062Z,12.07
2023-03-20T15:46:19.030Z,13.75
2023-03-20T15:49:23.964Z,11.02
2023-03-20T15:52:38.561Z,11.48
2023-03-20T15:55:41.898Z,12.70
2023-03-20T15:58:45.678Z,12.00
2023-03-20T16:01:52.532Z,12.02
2023-03-20T16:04:56.446Z,11.10
2023-03-20T16:08:21.688Z,10.55
2023-03-20T16:11:24.686Z,11.97
2023-03-20T16:14:32.196Z,12.60
2023-03-20T16:17:39.126Z,12.40
2023-03-20T16:20:51.439Z,11.48
2023-03-20T16:23:57.504Z,10.82
2023-03-20T16:27:01.508Z,9.33
2023-03-20T16:30:07.253Z,10.17
2023-03-20T16:33:15.959Z,11.30
2023-03-20T16:36:27.707Z,11.73
2023-03-20T16:39:31.390Z,9.60
2023-03-20T16:42:34.222Z,11.23
2023-03-20T16:45:37.384Z,9.50
2023-03-20T16:48:42.678Z,10.73
2023-03-20T16:51:45.397Z,8.20
2023-03-20T16:54:54.023Z,10.70
2023-03-20T16:58:00.947Z,10.30
2023-03-20T17:01:06.960Z,10.00
2023-03-20T17:04:22.756Z,9.73
2023-03-20T17:07:28.258Z,9.10
2023-03-20T17:10:31.251Z,10.38
2023-03-20T17:13:34.141Z,8.97
2023-03-20T17:16:38.098Z,10.40
2023-03-20T17:19:41.636Z,9.05
2023-03-20T17:22:45.105Z,10.20
2023-03-20T17:25:49.731Z,8.88
2023-03-20T17:28:52.736Z,8.97
2023-03-20T17:31:55.832Z,9.57
2023-03-20T17:34:58.961Z,10.63
2023-03-20T17:38:01.901Z,10.68
2023-03-20T17:41:05.198Z,11.80
2023-03-20T17:44:09.866Z,12.17
2023-03-20T17:47:22.528Z,11.03
2023-03-20T17:50:27.645Z,11.48
2023-03-20T17:53:31.590Z,12.70
2023-03-20T17:56:34.433Z,12.25
2023-03-20T17:59:37.414Z,11.70
2023-03-20T18:02:40.761Z,9.97
2023-03-20T18:05:53.416Z,9.07
2023-03-20T18:08:58.531Z,9.30
2023-03-20T18:12:01.749Z,9.90
2023-03-20T18:15:05.943Z,9.73
2023-03-20T18:18:11.181Z,11.20
2023-03-20T18:21:17.482Z,10.18
2023-03-20T18:24:21.120Z,10.98
2023-03-20T18:27:24.814Z,9.20
2023-03-20T18:30:35.315Z,10.27
2023-03-20T18:33:39.879Z,9.57
2023-03-20T18:36:46.424Z,10.77
2023-03-20T18:39:50.710Z,9.35
2023-03-20T18:42:56.300Z,11.98
2023-03-20T18:46:00.111Z,11.13
2023-03-20T18:49:04.274Z,10.13
2023-03-20T18:52:08.002Z,9.85
2023-03-20T18:55:12.053Z,9.55
2023-03-20T18:58:26.922Z,10.38
2023-03-20T19:01:33.653Z,12.17
2023-03-20T19:04:38.094Z,8.40
2023-03-20T19:07:44.090Z,11.05
2023-03-20T19:10:49.166Z,9.00
2023-03-20T19:13:55.932Z,8.85
2023-03-20T19:17:00.251Z,7.87
2023-03-20T19:20:04.099Z,9.23
2023-03-20T19:23:10.461Z,9.73
2023-03-20T19:26:18.260Z,9.82
2023-03-20T19:29:22.450Z,10.43
2023-03-20T19:32:26.881Z,8.73
2023-03-20T19:35:54.615Z,9.40
2023-03-20T19:38:58.373Z,8.93
2023-03-20T19:42:24.573Z,8.90
2023-03-20T19:45:29.020Z,8.73
2023-03-20T19:48:46.960Z,8.83
2023-03-20T19:51:54.253Z,9.30
2023-03-20T19:55:03.132Z,10.88
2023-03-20T19:58:12.755Z,10.80
2023-03-20T20:01:22.802Z,9.52
2023-03-20T20:04:27.531Z,9.27
2023-03-20T20:10:56.389Z,7.88
2023-03-20T20:14:09.477Z,9.30
2023-03-20T20:17:13.617Z,8.45
2023-03-20T20:20:25.016Z,8.40
2023-03-20T20:23:30.647Z,8.47
2023-03-20T20:26:40.503Z,9.43
2023-03-20T20:29:53.731Z,8.63
2023-03-20T20:33:03.636Z,8.90
2023-03-20T20:37:13.211Z,8.77
2023-03-20T20:39:38.157Z,9.03
2023-03-20T20:42:43.185Z,8.07
2023-03-20T20:45:46.793Z,8.32
2023-03-20T20:48:52.451Z,9.23
2023-03-20T20:51:56.037Z,8.57
2023-03-20T20:55:14.464Z,9.97
2023-03-20T20:58:23.242Z,7.35
2023-03-20T21:01:26.773Z,10.68
2023-03-20T21:04:30.353Z,9.05
2023-03-20T21:07:33.353Z,8.23
2023-03-20T21:10:36.851Z,8.37
2023-03-20T21:13:40.604Z,10.60
2023-03-20T21:16:43.934Z,8.75
2023-03-20T21:19:47.256Z,10.35
2023-03-20T21:22:51.566Z,9.17
2023-03-20T21:25:54.304Z,10.77
2023-03-20T21:28:57.288Z,9.10
2023-03-20T21:32:01.210Z,9.23
2023-03-20T21:35:07.541Z,9.50
2023-03-20T21:38:55.525Z,9.50
2023-03-20T21:41:33.473Z,10.03
2023-03-20T21:48:36.181Z,8.60
2023-03-20T21:55:25.096Z,9.73
2023-03-20T21:58:51.107Z,9.37
2023-03-20T22:05:28.776Z,10.07
2023-03-20T22:12:27.887Z,11.47
2023-03-20T22:15:34.082Z,8.97
2023-03-20T22:19:32.793Z,9.68
2023-03-20T22:22:55.304Z,8.88
2023-03-20T22:25:50.038Z,9.18
2023-03-20T22:29:14.991Z,9.30
2023-03-20T22:39:43.065Z,9.10
2023-03-20T22:46:07.675Z,9.03
2023-03-20T22:49:15.071Z,9.30
2023-03-20T22:52:31.698Z,9.15
2023-03-20T22:55:40.786Z,9.95
2023-03-20T22:58:43.710Z,9.18
2023-03-20T23:01:46.536Z,9.50
2023-03-20T23:04:53.675Z,8.90
2023-03-20T23:07:56.407Z,10.13
2023-03-20T23:10:59.126Z,7.63
2023-03-20T23:14:03.792Z,9.60
2023-03-20T23:17:08.756Z,8.47
2023-03-20T23:20:15.303Z,9.10
2023-03-20T23:23:19.784Z,8.50
2023-03-20T23:26:22.634Z,9.23
2023-03-20T23:29:25.760Z,9.85
2023-03-20T23:32:28.474Z,9.83
2023-03-20T23:35:31.229Z,10.30
2023-03-20T23:38:33.952Z,8.13
2023-03-20T23:45:13.271Z,7.75
2023-03-20T23:48:22.318Z,9.23
2023-03-20T23:51:25.440Z,9.80
2023-03-20T23:54:28.723Z,8.00
2023-03-20T23:57:31.397Z,10.15
